sensor_id;sensor_type;location;lat;lon;timestamp;pressure;altitude;pressure_sealevel;temperature;humidity
13553;BME280;6847;48.830;9.116;2023-05-01T00:00:41;97878.28;;;13.23;52.52
13553;BME280;6847;48.830;9.116;2023-05-01T00:03:08;97877.19;;;13.24;53.15
13553;BME280;6847;48.830;9.116;2023-05-01T00:05:34;97880.72;;;13.24;53.10
13553;BME280;6847;48.830;9.116;2023-05-01T00:08:01;97878.28;;;13.23;52.96
13553;BME280;6847;48.830;9.116;2023-05-01T00:10:29;97761.94;;;12.50;53.30
13553;BME280;6847;48.830;9.116;2023-05-01T00:12:57;97870.44;;;13.21;52.55
13553;BME280;6847;48.830;9.116;2023-05-01T00:15:25;97866.13;;;13.20;53.44
13553;BME280;6847;48.830;9.116;2023-05-01T00:17:56;97866.41;;;13.19;52.98
13553;BME280;6847;48.830;9.116;2023-05-01T00:20:25;97859.88;;;13.20;53.43
13553;BME280;6847;48.830;9.116;2023-05-01T00:22:53;97857.16;;;13.20;52.82
13553;BME280;6847;48.830;9.116;2023-05-01T00:25:19;97855.53;;;13.19;53.42
13553;BME280;6847;48.830;9.116;2023-05-01T00:27:46;97832.34;;;13.03;53.04
13553;BME280;6847;48.830;9.116;2023-05-01T00:30:14;97816.50;;;12.91;53.16
13553;BME280;6847;48.830;9.116;2023-05-01T00:32:41;97847.22;;;13.10;53.37
13553;BME280;6847;48.830;9.116;2023-05-01T00:35:11;97854.84;;;13.08;53.69
13553;BME280;6847;48.830;9.116;2023-05-01T00:37:37;97856.22;;;13.06;53.11
13553;BME280;6847;48.830;9.116;2023-05-01T00:40:07;97838.91;;;13.02;53.37
13553;BME280;6847;48.830;9.116;2023-05-01T00:42:34;97839.72;;;13.02;53.59
13553;BME280;6847;48.830;9.116;2023-05-01T00:45:04;97838.09;;;13.01;53.36
13553;BME280;6847;48.830;9.116;2023-05-01T00:47:30;97837.28;;;13.01;53.64
13553;BME280;6847;48.830;9.116;2023-05-01T00:49:58;97835.69;;;13.00;53.77
13553;BME280;6847;48.830;9.116;2023-05-01T00:52:30;97830.75;;;13.02;53.30
13553;BME280;6847;48.830;9.116;2023-05-01T00:54:57;97800.88;;;12.83;53.55
13553;BME280;6847;48.830;9.116;2023-05-01T00:57:24;97834.06;;;12.98;53.67
13553;BME280;6847;48.830;9.116;2023-05-01T00:59:51;97834.06;;;12.98;54.22
13553;BME280;6847;48.830;9.116;2023-05-01T01:02:17;97749.47;;;12.49;53.41
13553;BME280;6847;48.830;9.116;2023-05-01T01:04:46;97737.88;;;12.43;54.30
13553;BME280;6847;48.830;9.116;2023-05-01T01:07:17;97819.44;;;12.94;54.36
13553;BME280;6847;48.830;9.116;2023-05-01T01:09:56;97816.22;;;12.92;54.36
13553;BME280;6847;48.830;9.116;2023-05-01T01:12:31;97813.50;;;12.92;53.63
13553;BME280;6847;48.830;9.116;2023-05-01T01:15:08;97741.38;;;12.44;54.25
13553;BME280;6847;48.830;9.116;2023-05-01T01:17:43;97808.41;;;12.86;54.16
13553;BME280;6847;48.830;9.116;2023-05-01T01:20:31;97809.47;;;12.90;54.25
13553;BME280;6847;48.830;9.116;2023-05-01T01:23:41;97806.44;;;12.91;54.63
13553;BME280;6847;48.830;9.116;2023-05-01T01:26:26;97797.19;;;12.92;54.54
13553;BME280;6847;48.830;9.116;2023-05-01T01:29:38;97784.78;;;12.86;54.24
13553;BME280;6847;48.830;9.116;2023-05-01T01:32:13;97802.03;;;12.95;54.63
13553;BME280;6847;48.830;9.116;2023-05-01T01:34:49;97720.25;;;12.41;54.26
13553;BME280;6847;48.830;9.116;2023-05-01T01:37:20;97743.88;;;12.59;54.30
13553;BME280;6847;48.830;9.116;2023-05-01T01:39:55;97794.97;;;12.94;54.17
13553;BME280;6847;48.830;9.116;2023-05-01T01:42:30;97794.97;;;12.94;54.51
13553;BME280;6847;48.830;9.116;2023-05-01T01:45:04;97798.78;;;12.93;54.41
13553;BME280;6847;48.830;9.116;2023-05-01T01:47:35;97794.97;;;12.94;54.84
13553;BME280;6847;48.830;9.116;2023-05-01T01:50:10;97791.16;;;12.95;54.63
13553;BME280;6847;48.830;9.116;2023-05-01T01:52:40;97791.16;;;12.95;54.74
13553;BME280;6847;48.830;9.116;2023-05-01T01:55:13;97670.88;;;12.20;54.78
13553;BME280;6847;48.830;9.116;2023-05-01T01:57:40;97782.47;;;12.93;54.96
13553;BME280;6847;48.830;9.116;2023-05-01T02:00:12;97783.66;;;12.87;54.30
13553;BME280;6847;48.830;9.116;2023-05-01T02:02:41;97754.22;;;12.76;55.23
13553;BME280;6847;48.830;9.116;2023-05-01T02:05:13;97757.19;;;12.79;54.68
13553;BME280;6847;48.830;9.116;2023-05-01T02:07:41;97771.56;;;12.98;54.96
13553;BME280;6847;48.830;9.116;2023-05-01T02:10:10;97695.06;;;12.54;54.90
13553;BME280;6847;48.830;9.116;2023-05-01T02:12:38;97743.50;;;12.84;55.04
13553;BME280;6847;48.830;9.116;2023-05-01T02:15:06;97770.34;;;13.05;54.66
13553;BME280;6847;48.830;9.116;2023-05-01T02:17:35;97771.41;;;13.09;54.51
13553;BME280;6847;48.830;9.116;2023-05-01T02:20:07;97722.44;;;12.76;55.10
13553;BME280;6847;48.830;9.116;2023-05-01T02:22:40;97729.34;;;12.87;54.79
13553;BME280;6847;48.830;9.116;2023-05-01T02:25:08;97654.06;;;12.37;54.97
13553;BME280;6847;48.830;9.116;2023-05-01T02:27:38;97762.06;;;13.15;54.93
13553;BME280;6847;48.830;9.116;2023-05-01T02:30:09;97755.59;;;13.11;54.92
13553;BME280;6847;48.830;9.116;2023-05-01T02:32:37;97761.25;;;13.14;55.07
13553;BME280;6847;48.830;9.116;2023-05-01T02:35:04;97760.69;;;13.17;54.61
13553;BME280;6847;48.830;9.116;2023-05-01T02:37:31;97756.06;;;13.18;55.15
13553;BME280;6847;48.830;9.116;2023-05-01T02:39:59;97560.72;;;12.00;54.83
13553;BME280;6847;48.830;9.116;2023-05-01T02:42:26;97751.44;;;13.18;55.03
13553;BME280;6847;48.830;9.116;2023-05-01T02:44:56;97759.28;;;13.20;54.86
13553;BME280;6847;48.830;9.116;2023-05-01T02:47:26;97751.13;;;13.20;54.81
13553;BME280;6847;48.830;9.116;2023-05-01T02:49:56;97701.59;;;12.90;55.32
13553;BME280;6847;48.830;9.116;2023-05-01T02:52:27;97739.75;;;13.18;54.89
13553;BME280;6847;48.830;9.116;2023-05-01T02:54:56;97740.31;;;13.15;55.67
13553;BME280;6847;48.830;9.116;2023-05-01T02:57:24;97742.25;;;13.14;55.74
13553;BME280;6847;48.830;9.116;2023-05-01T02:59:51;97735.47;;;13.12;55.72
13553;BME280;6847;48.830;9.116;2023-05-01T03:02:18;97735.47;;;13.12;55.40
13553;BME280;6847;48.830;9.116;2023-05-01T03:04:45;97735.16;;;13.13;55.86
13553;BME280;6847;48.830;9.116;2023-05-01T03:07:11;97737.63;;;13.15;55.94
13553;BME280;6847;48.830;9.116;2023-05-01T03:09:38;97739.78;;;13.13;55.39
13553;BME280;6847;48.830;9.116;2023-05-01T03:12:05;97708.81;;;12.95;55.36
13553;BME280;6847;48.830;9.116;2023-05-01T03:14:33;97736.50;;;13.16;55.68
13553;BME280;6847;48.830;9.116;2023-05-01T03:16:59;97741.94;;;13.16;55.48
13553;BME280;6847;48.830;9.116;2023-05-01T03:19:26;97695.53;;;12.93;55.47
13553;BME280;6847;48.830;9.116;2023-05-01T03:21:52;97706.22;;;13.04;55.95
13553;BME280;6847;48.830;9.116;2023-05-01T03:24:19;97728.88;;;13.18;56.18
13553;BME280;6847;48.830;9.116;2023-05-01T03:26:46;97737.84;;;13.18;56.20
13553;BME280;6847;48.830;9.116;2023-05-01T03:29:12;97725.84;;;13.19;55.61
13553;BME280;6847;48.830;9.116;2023-05-01T03:31:40;97732.09;;;13.20;55.64
13553;BME280;6847;48.830;9.116;2023-05-01T03:34:08;97731.00;;;13.21;55.60
13553;BME280;6847;48.830;9.116;2023-05-01T03:36:35;97737.53;;;13.20;55.93
13553;BME280;6847;48.830;9.116;2023-05-01T03:39:04;97723.66;;;13.21;55.65
13553;BME280;6847;48.830;9.116;2023-05-01T03:41:32;97727.47;;;13.20;55.94
13553;BME280;6847;48.830;9.116;2023-05-01T03:43:59;97723.44;;;13.18;56.30
13553;BME280;6847;48.830;9.116;2023-05-01T03:46:25;97720.19;;;13.16;55.58
13553;BME280;6847;48.830;9.116;2023-05-01T03:48:54;97707.84;;;13.05;55.95
13553;BME280;6847;48.830;9.116;2023-05-01T03:51:20;97722.91;;;13.16;55.65
13553;BME280;6847;48.830;9.116;2023-05-01T03:53:47;97668.75;;;12.87;55.52
13553;BME280;6847;48.830;9.116;2023-05-01T03:56:16;97715.28;;;13.18;56.54
13553;BME280;6847;48.830;9.116;2023-05-01T03:58:42;97708.75;;;13.19;56.21
13553;BME280;6847;48.830;9.116;2023-05-01T04:01:09;97714.38;;;13.22;55.96
13553;BME280;6847;48.830;9.116;2023-05-01T04:03:35;97711.34;;;13.24;56.21
13553;BME280;6847;48.830;9.116;2023-05-01T04:06:03;97714.59;;;13.26;55.67
13553;BME280;6847;48.830;9.116;2023-05-01T04:08:30;97677.38;;;13.08;56.54
13553;BME280;6847;48.830;9.116;2023-05-01T04:10:57;97713.50;;;13.27;56.09
13553;BME280;6847;48.830;9.116;2023-05-01T04:13:25;97709.75;;;13.23;55.91
13553;BME280;6847;48.830;9.116;2023-05-01T04:15:52;97587.56;;;12.53;56.10
13553;BME280;6847;48.830;9.116;2023-05-01T04:18:21;97712.50;;;13.37;56.36
13553;BME280;6847;48.830;9.116;2023-05-01T04:20:51;97708.69;;;13.38;56.40
13553;BME280;6847;48.830;9.116;2023-05-01T04:23:19;97709.19;;;13.40;56.52
13553;BME280;6847;48.830;9.116;2023-05-01T04:25:45;97709.38;;;13.43;56.00
13553;BME280;6847;48.830;9.116;2023-05-01T04:28:12;97707.97;;;13.46;55.78
13553;BME280;6847;48.830;9.116;2023-05-01T04:30:39;97702.75;;;13.49;56.05
13553;BME280;6847;48.830;9.116;2023-05-01T04:33:05;97614.00;;;12.93;56.40
13553;BME280;6847;48.830;9.116;2023-05-01T04:35:38;97708.59;;;13.56;56.10
13553;BME280;6847;48.830;9.116;2023-05-01T04:38:06;97709.41;;;13.57;56.22
13553;BME280;6847;48.830;9.116;2023-05-01T04:40:36;97711.03;;;13.58;56.07
13553;BME280;6847;48.830;9.116;2023-05-01T04:43:05;97708.00;;;13.59;56.62
13553;BME280;6847;48.830;9.116;2023-05-01T04:45:32;97712.81;;;13.62;55.87
13553;BME280;6847;48.830;9.116;2023-05-01T04:47:58;97692.06;;;13.53;55.89
13553;BME280;6847;48.830;9.116;2023-05-01T04:50:26;97699.16;;;13.67;56.02
13553;BME280;6847;48.830;9.116;2023-05-01T04:52:52;97707.81;;;13.69;56.03
13553;BME280;6847;48.830;9.116;2023-05-01T04:55:18;97702.84;;;13.71;56.22
13553;BME280;6847;48.830;9.116;2023-05-01T04:57:48;97591.09;;;13.00;56.50
13553;BME280;6847;48.830;9.116;2023-05-01T05:00:15;97721.31;;;13.75;56.52
13553;BME280;6847;48.830;9.116;2023-05-01T05:02:44;97711.44;;;13.79;56.36
13553;BME280;6847;48.830;9.116;2023-05-01T05:05:10;97708.91;;;13.82;56.45
13553;BME280;6847;48.830;9.116;2023-05-01T05:07:37;97711.84;;;13.86;56.34
13553;BME280;6847;48.830;9.116;2023-05-01T05:10:05;97718.31;;;13.90;56.53
13553;BME280;6847;48.830;9.116;2023-05-01T05:12:31;97723.94;;;13.93;56.27
13553;BME280;6847;48.830;9.116;2023-05-01T05:14:59;97717.06;;;13.96;56.18
13553;BME280;6847;48.830;9.116;2023-05-01T05:17:26;97723.53;;;14.00;56.15
13553;BME280;6847;48.830;9.116;2023-05-01T05:19:52;97698.13;;;13.91;56.49
13553;BME280;6847;48.830;9.116;2023-05-01T05:22:21;97709.81;;;14.05;56.36
13553;BME280;6847;48.830;9.116;2023-05-01T05:24:52;97714.66;;;14.08;56.69
13553;BME280;6847;48.830;9.116;2023-05-01T05:27:18;97709.38;;;14.12;56.21
13553;BME280;6847;48.830;9.116;2023-05-01T05:29:45;97716.16;;;14.14;56.46
13553;BME280;6847;48.830;9.116;2023-05-01T05:32:13;97704.16;;;14.15;56.66
13553;BME280;6847;48.830;9.116;2023-05-01T05:34:40;97678.97;;;13.96;56.43
13553;BME280;6847;48.830;9.116;2023-05-01T05:37:07;97711.00;;;14.13;56.37
13553;BME280;6847;48.830;9.116;2023-05-01T05:39:33;97713.84;;;14.07;nan
13553;BME280;6847;48.830;9.116;2023-05-01T05:42:00;97719.38;;;14.02;56.63
13553;BME280;6847;48.830;9.116;2023-05-01T05:44:30;97720.81;;;14.00;56.96
13553;BME280;6847;48.830;9.116;2023-05-01T05:47:00;97714.34;;;13.96;56.81
13553;BME280;6847;48.830;9.116;2023-05-01T05:49:29;97684.72;;;13.67;56.62
13553;BME280;6847;48.830;9.116;2023-05-01T05:51:56;97712.94;;;13.85;57.11
13553;BME280;6847;48.830;9.116;2023-05-01T05:54:23;97722.72;;;13.86;56.73
13553;BME280;6847;48.830;9.116;2023-05-01T05:56:50;97724.34;;;13.87;57.40
13553;BME280;6847;48.830;9.116;2023-05-01T05:59:16;97476.50;;;12.38;57.07
13553;BME280;6847;48.830;9.116;2023-05-01T06:01:43;97667.09;;;13.64;56.49
13553;BME280;6847;48.830;9.116;2023-05-01T06:04:10;97686.84;;;13.84;57.00
13553;BME280;6847;48.830;9.116;2023-05-01T06:06:39;97711.44;;;14.06;56.94
13553;BME280;6847;48.830;9.116;2023-05-01T06:09:06;97716.28;;;14.09;nan
13553;BME280;6847;48.830;9.116;2023-05-01T06:11:33;97716.66;;;14.16;57.02
13553;BME280;6847;48.830;9.116;2023-05-01T06:14:00;97719.91;;;14.18;56.81
13553;BME280;6847;48.830;9.116;2023-05-01T06:16:28;97720.88;;;14.22;57.02
13553;BME280;6847;48.830;9.116;2023-05-01T06:18:54;97713.22;;;14.24;57.15
13553;BME280;6847;48.830;9.116;2023-05-01T06:21:21;97712.94;;;14.39;57.27
13553;BME280;6847;48.830;9.116;2023-05-01T06:23:49;97715.41;;;14.50;57.02
13553;BME280;6847;48.830;9.116;2023-05-01T06:26:15;97718.22;;;14.58;57.10
13553;BME280;6847;48.830;9.116;2023-05-01T06:28:42;97714.78;;;14.66;56.93
13553;BME280;6847;48.830;9.116;2023-05-01T06:31:08;97719.19;;;14.76;56.72
13553;BME280;6847;48.830;9.116;2023-05-01T06:33:35;97730.44;;;14.83;56.58
13553;BME280;6847;48.830;9.116;2023-05-01T06:36:03;97719.91;;;14.90;56.82
13553;BME280;6847;48.830;9.116;2023-05-01T06:38:30;97725.94;;;15.01;56.80
13553;BME280;6847;48.830;9.116;2023-05-01T06:40:58;97730.31;;;15.10;56.76
13553;BME280;6847;48.830;9.116;2023-05-01T06:43:25;97730.06;;;15.21;56.75
13553;BME280;6847;48.830;9.116;2023-05-01T06:45:54;97730.47;;;15.28;56.73
13553;BME280;6847;48.830;9.116;2023-05-01T06:48:21;97731.31;;;15.37;56.64
13553;BME280;6847;48.830;9.116;2023-05-01T06:50:48;97734.91;;;15.46;56.46
13553;BME280;6847;48.830;9.116;2023-05-01T06:53:14;97740.13;;;15.56;56.55
13553;BME280;6847;48.830;9.116;2023-05-01T06:55:41;97743.19;;;15.63;56.66
13553;BME280;6847;48.830;9.116;2023-05-01T06:58:10;97746.28;;;15.70;56.47
13553;BME280;6847;48.830;9.116;2023-05-01T07:00:36;97746.16;;;15.75;56.65
13553;BME280;6847;48.830;9.116;2023-05-01T07:03:04;97748.63;;;15.85;56.52
13553;BME280;6847;48.830;9.116;2023-05-01T07:05:30;97745.59;;;15.96;56.36
13553;BME280;6847;48.830;9.116;2023-05-01T07:07:57;97743.06;;;16.08;56.23
13553;BME280;6847;48.830;9.116;2023-05-01T07:10:25;97743.75;;;16.22;56.27
13553;BME280;6847;48.830;9.116;2023-05-01T07:12:52;97746.84;;;16.38;56.09
13553;BME280;6847;48.830;9.116;2023-05-01T07:15:21;97751.56;;;16.54;56.03
13553;BME280;6847;48.830;9.116;2023-05-01T07:17:49;97740.00;;;16.75;55.74
13553;BME280;6847;48.830;9.116;2023-05-01T07:20:16;97680.16;;;16.47;55.89
13553;BME280;6847;48.830;9.116;2023-05-01T07:22:43;97721.53;;;16.72;55.83
13553;BME280;6847;48.830;9.116;2023-05-01T07:25:10;97743.06;;;16.99;55.71
13553;BME280;6847;48.830;9.116;2023-05-01T07:27:36;97747.25;;;17.14;55.99
13553;BME280;6847;48.830;9.116;2023-05-01T07:30:03;97740.00;;;17.26;55.52
13553;BME280;6847;48.830;9.116;2023-05-01T07:32:31;97741.25;;;17.37;55.97
13553;BME280;6847;48.830;9.116;2023-05-01T07:34:58;97741.91;;;17.52;55.60
13553;BME280;6847;48.830;9.116;2023-05-01T07:37:25;97736.38;;;17.69;55.60
13553;BME280;6847;48.830;9.116;2023-05-01T07:39:53;97737.94;;;17.87;55.63
13553;BME280;6847;48.830;9.116;2023-05-01T07:42:20;97699.91;;;17.86;55.16
13553;BME280;6847;48.830;9.116;2023-05-01T07:44:49;97707.53;;;18.09;55.00
13553;BME280;6847;48.830;9.116;2023-05-01T07:47:15;97737.00;;;18.42;54.78
13553;BME280;6847;48.830;9.116;2023-05-01T07:49:44;97736.94;;;18.59;54.68
13553;BME280;6847;48.830;9.116;2023-05-01T07:52:11;97723.16;;;18.68;54.92
13553;BME280;6847;48.830;9.116;2023-05-01T07:54:40;97679.00;;;18.40;54.91
13553;BME280;6847;48.830;9.116;2023-05-01T07:57:07;97733.59;;;18.74;54.95
13553;BME280;6847;48.830;9.116;2023-05-01T07:59:33;97734.25;;;18.71;54.76
13553;BME280;6847;48.830;9.116;2023-05-01T08:02:00;97729.13;;;18.70;54.92
13553;BME280;6847;48.830;9.116;2023-05-01T08:04:27;97727.75;;;18.55;55.04
13553;BME280;6847;48.830;9.116;2023-05-01T08:06:55;97722.97;;;18.43;55.49
13553;BME280;6847;48.830;9.116;2023-05-01T08:09:22;97710.78;;;18.32;55.50
13553;BME280;6847;48.830;9.116;2023-05-01T08:11:48;97704.50;;;18.32;55.33
13553;BME280;6847;48.830;9.116;2023-05-01T08:14:15;97720.72;;;18.45;55.00
13553;BME280;6847;48.830;9.116;2023-05-01T08:16:42;97730.69;;;18.50;55.03
13553;BME280;6847;48.830;9.116;2023-05-01T08:19:09;97725.66;;;18.52;55.04
13553;BME280;6847;48.830;9.116;2023-05-01T08:21:35;97718.19;;;18.61;55.27
13553;BME280;6847;48.830;9.116;2023-05-01T08:24:08;97719.00;;;18.62;54.57
13553;BME280;6847;48.830;9.116;2023-05-01T08:26:34;97723.56;;;18.78;54.84
13553;BME280;6847;48.830;9.116;2023-05-01T08:29:01;97721.56;;;18.88;54.43
13553;BME280;6847;48.830;9.116;2023-05-01T08:31:28;97718.75;;;18.96;54.33
13553;BME280;6847;48.830;9.116;2023-05-01T08:33:54;97725.81;;;19.18;53.85
13553;BME280;6847;48.830;9.116;2023-05-01T08:36:21;97722.44;;;19.33;53.88
13553;BME280;6847;48.830;9.116;2023-05-01T08:38:48;97727.34;;;19.61;53.93
13553;BME280;6847;48.830;9.116;2023-05-01T08:41:20;97725.47;;;19.98;53.35
13553;BME280;6847;48.830;9.116;2023-05-01T08:43:48;97689.84;;;19.89;53.07
13553;BME280;6847;48.830;9.116;2023-05-01T08:46:20;97721.00;;;20.29;52.94
13553;BME280;6847;48.830;9.116;2023-05-01T08:48:51;97713.56;;;20.42;52.75
13553;BME280;6847;48.830;9.116;2023-05-01T08:51:20;97723.03;;;20.57;52.72
13553;BME280;6847;48.830;9.116;2023-05-01T08:53:48;97695.31;;;20.62;52.58
13553;BME280;6847;48.830;9.116;2023-05-01T08:56:18;97720.44;;;21.00;52.37
13553;BME280;6847;48.830;9.116;2023-05-01T08:58:48;97720.09;;;21.30;52.04
13553;BME280;6847;48.830;9.116;2023-05-01T09:01:15;97731.28;;;21.65;51.72
13553;BME280;6847;48.830;9.116;2023-05-01T09:03:42;97528.44;;;20.66;50.97
13553;BME280;6847;48.830;9.116;2023-05-01T09:06:10;97680.56;;;22.13;50.47
13553;BME280;6847;48.830;9.116;2023-05-01T09:08:37;97730.84;;;23.11;49.85
13553;BME280;6847;48.830;9.116;2023-05-01T09:11:04;97695.75;;;23.73;48.74
13553;BME280;6847;48.830;9.116;2023-05-01T09:13:33;97714.44;;;24.48;48.13
13553;BME280;6847;48.830;9.116;2023-05-01T09:16:03;97733.69;;;24.67;48.14
13553;BME280;6847;48.830;9.116;2023-05-01T09:18:30;97734.19;;;24.50;48.90
13553;BME280;6847;48.830;9.116;2023-05-01T09:20:59;97714.19;;;24.11;49.40
13553;BME280;6847;48.830;9.116;2023-05-01T09:23:27;97711.44;;;23.66;50.29
13553;BME280;6847;48.830;9.116;2023-05-01T09:26:03;97710.78;;;23.34;50.56
13553;BME280;6847;48.830;9.116;2023-05-01T09:28:41;97728.59;;;23.36;50.65
13553;BME280;6847;48.830;9.116;2023-05-01T09:31:24;97726.50;;;23.30;50.54
13553;BME280;6847;48.830;9.116;2023-05-01T09:33:54;97736.97;;;23.40;50.46
13553;BME280;6847;48.830;9.116;2023-05-01T09:36:24;97736.53;;;23.57;50.05
13553;BME280;6847;48.830;9.116;2023-05-01T09:38:50;97727.88;;;23.81;49.74
13553;BME280;6847;48.830;9.116;2023-05-01T09:41:23;97726.31;;;24.03;49.47
13553;BME280;6847;48.830;9.116;2023-05-01T09:43:53;97625.31;;;23.64;48.68
13553;BME280;6847;48.830;9.116;2023-05-01T09:46:21;97708.53;;;24.80;48.27
13553;BME280;6847;48.830;9.116;2023-05-01T09:48:56;97722.31;;;25.66;47.29
13553;BME280;6847;48.830;9.116;2023-05-01T09:51:25;97700.44;;;26.01;46.85
13553;BME280;6847;48.830;9.116;2023-05-01T09:53:53;97729.13;;;26.20;46.90
13553;BME280;6847;48.830;9.116;2023-05-01T09:56:20;97726.53;;;25.93;47.38
13553;BME280;6847;48.830;9.116;2023-05-01T09:58:49;97707.41;;;25.48;48.13
13553;BME280;6847;48.830;9.116;2023-05-01T10:01:18;97639.88;;;24.62;48.40
13553;BME280;6847;48.830;9.116;2023-05-01T10:04:05;97726.22;;;24.71;48.98
13553;BME280;6847;48.830;9.116;2023-05-01T10:06:33;97728.47;;;24.36;49.33
13553;BME280;6847;48.830;9.116;2023-05-01T10:09:02;97684.72;;;23.73;49.60
13553;BME280;6847;48.830;9.116;2023-05-01T10:11:46;97729.06;;;23.80;49.70
13553;BME280;6847;48.830;9.116;2023-05-01T10:14:12;97671.25;;;23.30;49.66
13553;BME280;6847;48.830;9.116;2023-05-01T10:16:40;97723.38;;;23.70;49.38
13553;BME280;6847;48.830;9.116;2023-05-01T10:19:08;97726.53;;;23.72;49.17
13553;BME280;6847;48.830;9.116;2023-05-01T10:21:35;97726.59;;;23.75;48.99
13553;BME280;6847;48.830;9.116;2023-05-01T10:24:02;97729.38;;;23.75;49.05
13553;BME280;6847;48.830;9.116;2023-05-01T10:26:34;97703.22;;;23.69;48.68
13553;BME280;6847;48.830;9.116;2023-05-01T10:29:01;97722.91;;;23.90;48.54
13553;BME280;6847;48.830;9.116;2023-05-01T10:31:28;97686.41;;;23.81;48.32
13553;BME280;6847;48.830;9.116;2023-05-01T10:33:59;97738.41;;;24.18;47.99
13553;BME280;6847;48.830;9.116;2023-05-01T10:36:35;97730.78;;;24.34;47.78
13553;BME280;6847;48.830;9.116;2023-05-01T10:39:28;97714.63;;;24.62;47.16
13553;BME280;6847;48.830;9.116;2023-05-01T10:42:05;97736.63;;;25.08;46.75
13553;BME280;6847;48.830;9.116;2023-05-01T10:44:40;97717.19;;;25.38;46.55
13553;BME280;6847;48.830;9.116;2023-05-01T10:47:42;97730.31;;;25.74;46.21
13553;BME280;6847;48.830;9.116;2023-05-01T10:50:12;97730.69;;;25.73;46.07
13553;BME280;6847;48.830;9.116;2023-05-01T10:53:16;97732.28;;;25.74;46.36
13553;BME280;6847;48.830;9.116;2023-05-01T10:55:44;97728.88;;;25.91;46.31
13553;BME280;6847;48.830;9.116;2023-05-01T10:58:11;97734.69;;;26.20;45.96
13553;BME280;6847;48.830;9.116;2023-05-01T11:00:40;97727.28;;;26.31;45.54
13553;BME280;6847;48.830;9.116;2023-05-01T11:03:33;97731.66;;;26.35;45.72
13553;BME280;6847;48.830;9.116;2023-05-01T11:06:08;97729.97;;;26.24;45.95
13553;BME280;6847;48.830;9.116;2023-05-01T11:08:36;97662.81;;;25.60;45.71
13553;BME280;6847;48.830;9.116;2023-05-01T11:11:46;97721.59;;;25.76;46.23
13553;BME280;6847;48.830;9.116;2023-05-01T11:14:16;97717.41;;;25.56;46.01
13553;BME280;6847;48.830;9.116;2023-05-01T11:16:44;97675.84;;;25.22;46.69
13553;BME280;6847;48.830;9.116;2023-05-01T11:19:45;97715.31;;;25.46;46.12
13553;BME280;6847;48.830;9.116;2023-05-01T11:22:18;97717.28;;;25.45;45.89
13553;BME280;6847;48.830;9.116;2023-05-01T11:24:47;97714.91;;;25.43;45.75
13553;BME280;6847;48.830;9.116;2023-05-01T11:27:14;97716.13;;;25.46;46.04
13553;BME280;6847;48.830;9.116;2023-05-01T11:29:43;97684.22;;;25.26;45.68
13553;BME280;6847;48.830;9.116;2023-05-01T11:32:18;97714.47;;;25.41;45.83
13553;BME280;6847;48.830;9.116;2023-05-01T11:34:47;97713.22;;;25.35;45.69
13553;BME280;6847;48.830;9.116;2023-05-01T11:37:15;97712.38;;;25.31;45.58
13553;BME280;6847;48.830;9.116;2023-05-01T11:39:49;97714.81;;;25.36;45.23
13553;BME280;6847;48.830;9.116;2023-05-01T11:42:19;97713.56;;;25.30;45.40
13553;BME280;6847;48.830;9.116;2023-05-01T11:45:04;97696.78;;;25.16;45.37
13553;BME280;6847;48.830;9.116;2023-05-01T11:47:31;97715.41;;;25.19;45.54
13553;BME280;6847;48.830;9.116;2023-05-01T11:49:59;97708.09;;;25.04;45.57
13553;BME280;6847;48.830;9.116;2023-05-01T11:52:27;97705.09;;;24.90;45.67
13553;BME280;6847;48.830;9.116;2023-05-01T11:55:07;97700.50;;;24.71;45.57
13553;BME280;6847;48.830;9.116;2023-05-01T11:57:44;97663.53;;;24.30;45.72
13553;BME280;6847;48.830;9.116;2023-05-01T12:00:13;97704.81;;;24.42;45.73
13553;BME280;6847;48.830;9.116;2023-05-01T12:02:53;97707.16;;;24.40;45.29
13553;BME280;6847;48.830;9.116;2023-05-01T12:05:28;97700.88;;;24.43;45.32
13553;BME280;6847;48.830;9.116;2023-05-01T12:08:09;97700.25;;;24.53;45.25
13553;BME280;6847;48.830;9.116;2023-05-01T12:10:40;97697.34;;;24.73;45.02
13553;BME280;6847;48.830;9.116;2023-05-01T12:13:09;97699.44;;;25.09;44.65
13553;BME280;6847;48.830;9.116;2023-05-01T12:15:39;97667.13;;;25.20;44.05
13553;BME280;6847;48.830;9.116;2023-05-01T12:18:06;97692.78;;;25.84;43.54
13553;BME280;6847;48.830;9.116;2023-05-01T12:20:37;97685.88;;;26.15;43.66
13553;BME280;6847;48.830;9.116;2023-05-01T12:23:14;97687.28;;;26.39;43.23
13553;BME280;6847;48.830;9.116;2023-05-01T12:25:43;97695.31;;;26.51;43.11
13553;BME280;6847;48.830;9.116;2023-05-01T12:28:13;97674.63;;;26.41;43.47
13553;BME280;6847;48.830;9.116;2023-05-01T12:30:41;97649.06;;;26.22;43.23
13553;BME280;6847;48.830;9.116;2023-05-01T12:33:12;97672.28;;;26.50;43.28
13553;BME280;6847;48.830;9.116;2023-05-01T12:35:40;97701.00;;;26.72;43.23
13553;BME280;6847;48.830;9.116;2023-05-01T12:38:12;97694.78;;;26.93;43.01
13553;BME280;6847;48.830;9.116;2023-05-01T12:40:49;97676.44;;;26.85;42.74
13553;BME280;6847;48.830;9.116;2023-05-01T12:43:29;97676.81;;;26.83;43.21
13553;BME280;6847;48.830;9.116;2023-05-01T12:45:57;97702.56;;;26.70;43.00
13553;BME280;6847;48.830;9.116;2023-05-01T12:48:24;97694.88;;;26.49;43.43
13553;BME280;6847;48.830;9.116;2023-05-01T12:50:52;97699.84;;;26.26;43.85
13553;BME280;6847;48.830;9.116;2023-05-01T12:53:20;97655.81;;;25.73;43.69
13553;BME280;6847;48.830;9.116;2023-05-01T12:55:50;97698.84;;;26.00;43.60
13553;BME280;6847;48.830;9.116;2023-05-01T12:58:17;97695.47;;;26.25;43.52
13553;BME280;6847;48.830;9.116;2023-05-01T13:00:45;97693.63;;;26.39;42.86
13553;BME280;6847;48.830;9.116;2023-05-01T13:03:13;97692.84;;;26.39;43.05
13553;BME280;6847;48.830;9.116;2023-05-01T13:05:55;97698.56;;;26.67;42.80
13553;BME280;6847;48.830;9.116;2023-05-01T13:08:29;97691.47;;;26.77;42.35
13553;BME280;6847;48.830;9.116;2023-05-01T13:11:00;97632.50;;;26.29;42.61
13553;BME280;6847;48.830;9.116;2023-05-01T13:13:28;97685.25;;;26.36;42.73
13553;BME280;6847;48.830;9.116;2023-05-01T13:16:03;97657.22;;;26.00;43.10
13553;BME280;6847;48.830;9.116;2023-05-01T13:18:32;97671.75;;;25.83;43.54
13553;BME280;6847;48.830;9.116;2023-05-01T13:21:06;97684.72;;;25.72;43.54
13553;BME280;6847;48.830;9.116;2023-05-01T13:23:37;97685.00;;;25.60;43.61